TimePDT,TemperatureF,Dew PointF,Humidity,Sea Level PressureIn,VisibilityMPH,Wind Direction,Wind SpeedMPH,Gust SpeedMPH,PrecipitationIn,Events,Conditions,WindDirDegrees,DateUTC
12:53 AM,46.0,39.9,79,29.79,10.0,South,8.1,-,N/A,,Clear,180,2013-09-25 07:53:00
1:53 AM,46.0,39.9,79,29.78,10.0,Calm,Calm,-,N/A,,Clear,0,2013-09-25 08:53:00
2:53 AM,46.9,41.0,80,29.78,10.0,SW,4.6,-,N/A,,Overcast,220,2013-09-25 09:53:00
3:53 AM,46.9,41.0,80,29.78,10.0,Calm,Calm,-,N/A,,Overcast,0,2013-09-25 10:53:00
4:53 AM,46.9,39.9,77,29.78,10.0,WSW,4.6,-,N/A,,Overcast,250,2013-09-25 11:53:00
5:53 AM,45.0,42.1,90,29.78,10.0,South,4.6,-,N/A,,Overcast,180,2013-09-25 12:53:00
6:53 AM,46.9,41.0,80,29.78,10.0,SSW,4.6,-,N/A,,Overcast,210,2013-09-25 13:53:00
7:53 AM,48.0,41.0,77,29.79,10.0,WSW,5.8,-,N/A,,Overcast,240,2013-09-25 14:53:00
8:10 AM,48.9,41.0,74,29.81,10.0,WSW,10.4,-,N/A,,Overcast,250,2013-09-25 15:10:00
8:46 AM,51.1,41.0,68,29.81,10.0,West,13.8,-,N/A,,Mostly Cloudy,260,2013-09-25 15:46:00
8:53 AM,51.1,41.0,68,29.80,10.0,WSW,11.5,-,N/A,,Mostly Cloudy,250,2013-09-25 15:53:00
9:53 AM,51.1,42.1,71,29.81,10.0,West,12.7,-,N/A,,Overcast,280,2013-09-25 16:53:00
10:13 AM,51.1,42.1,71,29.82,10.0,WNW,12.7,-,N/A,,Overcast,290,2013-09-25 17:13:00
10:25 AM,52.0,42.1,69,29.82,10.0,West,10.4,-,N/A,,Overcast,280,2013-09-25 17:25:00
10:53 AM,53.1,42.1,66,29.81,10.0,WNW,12.7,-,N/A,,Overcast,290,2013-09-25 17:53:00
11:53 AM,52.0,43.0,71,29.82,10.0,WNW,9.2,-,0.00,Rain,Light Rain,290,2013-09-25 18:53:00
12:36 PM,53.1,42.1,66,29.83,10.0,WNW,8.1,-,0.00,Rain,Light Rain,300,2013-09-25 19:36:00
12:53 PM,54.0,42.1,64,29.82,10.0,WNW,8.1,-,0.00,,Overcast,300,2013-09-25 19:53:00
1:53 PM,57.0,41.0,55,29.81,10.0,WNW,10.4,-,N/A,,Overcast,290,2013-09-25 20:53:00
2:53 PM,59.0,39.9,49,29.81,10.0,WNW,9.2,-,N/A,,Mostly Cloudy,300,2013-09-25 21:53:00
3:53 PM,61.0,39.9,46,29.80,10.0,WNW,11.5,-,N/A,,Scattered Clouds,290,2013-09-25 22:53:00
4:53 PM,62.1,39.0,43,29.79,10.0,WNW,15.0,19.6,N/A,,Mostly Cloudy,290,2013-09-25 23:53:00
5:53 PM,61.0,37.0,41,29.80,10.0,NW,12.7,-,N/A,,Clear,320,2013-09-26 00:53:00
6:53 PM,55.9,39.0,53,29.81,10.0,West,10.4,-,N/A,,Mostly Cloudy,280,2013-09-26 01:53:00
7:53 PM,55.0,39.9,57,29.82,10.0,West,17.3,-,N/A,,Overcast,260,2013-09-26 02:53:00
8:53 PM,53.1,39.9,61,29.83,10.0,West,19.6,-,N/A,,Overcast,270,2013-09-26 03:53:00
9:53 PM,52.0,41.0,66,29.84,10.0,West,19.6,-,N/A,,Overcast,270,2013-09-26 04:53:00
10:53 PM,51.1,42.1,71,29.85,10.0,West,21.9,27.6,N/A,,Overcast,270,2013-09-26 05:53:00
11:53 PM,50.0,41.0,71,29.85,10.0,West,20.7,-,N/A,,Overcast,270,2013-09-26 06:53:00